Murphy's Hourly Summary for Sunday, April 16, 2017
Hour Temp
(f)
RH
(%)
Solar Rad.
(MJ/m2)
Rainfall
(in)
Wind
(mph)
4/16/2017 12:00 AM 70 75 0 0 2.45
4/16/2017 1:00 AM 69 76 0 0 2.66
4/16/2017 2:00 AM 68 76 0 0 3.43
4/16/2017 3:00 AM 68 77 0 0 4.2
4/16/2017 4:00 AM 67 79 0 0 3.39
4/16/2017 5:00 AM 65 84 0 0 2.75
4/16/2017 6:00 AM 65 89 0 0 2.61
4/16/2017 7:00 AM 64 92 0 0 3.17
4/16/2017 8:00 AM 65 92 0.14 0 4.17
4/16/2017 9:00 AM 66 87 0.29 0 4.83
4/16/2017 10:00 AM 69 77 1.03 0 5.56
4/16/2017 11:00 AM 70 77 0.65 0 4.77
4/16/2017 12:00 PM 73 71 0.99 0 4.61
4/16/2017 1:00 PM 74 65 1.04 0 3.9
4/16/2017 2:00 PM 76 59 1.54 0 5.12
4/16/2017 3:00 PM 76 61 0.68 0 4.34
4/16/2017 4:00 PM 77 62 0.81 0 4.78
4/16/2017 5:00 PM 78 60 1.27 0 5.53
4/16/2017 6:00 PM 78 59 0.85 0 3.81
4/16/2017 7:00 PM 77 60 0.38 0 2.88
4/16/2017 8:00 PM 76 66 0.05 0 0.61
4/16/2017 9:00 PM 75 68 0 0 0.06
4/16/2017 10:00 PM 73 73 0 0 0.14
4/16/2017 11:00 PM 72 76 0 0 0.12
Data Summary 71 73 9.72 0.00 3.33